This is the latest recevied weather packets stored in our database for station/object N2XP-3. If no packets are shown the sender has not sent any weather packets the latest 10 day(s).
| Time | Temp. | Humidity | Pressure | Rain* | Wind** | Luminosity | Snow |
|---|---|---|---|---|---|---|---|
| 1777740107 | 15° C | 50% | 1009.7 hPa | 0 mm | 0.45 m/s, 6° | - | - |
| 1777739807 | 15° C | 51% | 1009.9 hPa | 0 mm | 0.89 m/s, 203° | - | - |
| 1777739592 | 15° C | 50% | 1009.9 hPa | 0 mm | 1.34 m/s, 84° | - | - |
| 1777739508 | 15° C | 50% | 1009.9 hPa | 0 mm | 1.34 m/s, 84° | - | - |
| 1777739204 | 15° C | 50% | 1009.8 hPa | 0 mm | 0.89 m/s, 80° | - | - |
| 1777738602 | 16.11° C | 50% | 1009.8 hPa | 0 mm | 0.89 m/s, 333° | - | - |
| 1777738338 | 15.56° C | 52% | 1009.8 hPa | 0 mm | 2.24 m/s, 183° | - | - |
| 1777738298 | 15.56° C | 52% | 1009.8 hPa | 0 mm | 2.24 m/s, 183° | - | - |
| 1777737999 | 15° C | 54% | 1009.9 hPa | 0 mm | 1.34 m/s, 134° | - | - |
| 1777737823 | 14.44° C | 53% | 1009.9 hPa | 0 mm | 0.89 m/s, 44° | - | - |
| 1777737700 | 14.44° C | 53% | 1009.9 hPa | 0 mm | 0.89 m/s, 44° | - | - |
| 1777737396 | 14.44° C | 54% | 1010 hPa | 0 mm | 1.34 m/s, 56° | - | - |
| 1777737097 | 14.44° C | 52% | 1010 hPa | 0 mm | 4.47 m/s, 11° | - | - |
| 1777736798 | 14.44° C | 53% | 1010.1 hPa | 0 mm | 2.24 m/s, 83° | - | - |
| 1777736193 | 13.89° C | 57% | 1010.1 hPa | 0 mm | 1.34 m/s, 82° | - | - |
| 1777735962 | 13.33° C | 56% | 1010.2 hPa | 0 mm | 2.24 m/s, 181° | - | - |
| 1777735894 | 13.33° C | 56% | 1010.2 hPa | 0 mm | 2.24 m/s, 181° | - | - |
| 1777735584 | 13.33° C | 56% | 1010.2 hPa | 0 mm | 2.68 m/s, 59° | - | - |
| 1777735281 | 13.33° C | 58% | 1010.1 hPa | 0 mm | 2.24 m/s, 73° | - | - |
| 1777734977 | 13.33° C | 56% | 1010.1 hPa | 0 mm | 3.13 m/s, 52° | - | - |
| 1777734671 | 13.89° C | 58% | 1010.1 hPa | 0 mm | 2.68 m/s, 42° | - | - |
| 1777734370 | 12.78° C | 60% | 1010.1 hPa | 0 mm | 1.34 m/s, 318° | - | - |
| 1777734069 | 12.78° C | 59% | 1010.3 hPa | 0 mm | 3.58 m/s, 143° | - | - |
| 1777733167 | 12.78° C | 61% | 1010.3 hPa | 0 mm | 2.68 m/s, 3° | - | - |
| 1777732560 | 13.33° C | 61% | 1010.3 hPa | 0 mm | 1.34 m/s, 8° | - | - |
* Rain latest hour (hover to see other rain measurements)
** Current wind speed in m/s (hover to see current wind gust speed)